sensor_id;sensor_type;location;lat;lon;timestamp;P1;durP1;ratioP1;P2;durP2;ratioP2
11008;SDS011;5557;51.670;7.788;2023-02-07T00:00:22;15.97;;;14.30;;
11008;SDS011;5557;51.670;7.788;2023-02-07T00:02:50;18.00;;;16.10;;
11008;SDS011;5557;51.670;7.788;2023-02-07T00:05:17;18.73;;;15.57;;
11008;SDS011;5557;51.670;7.788;2023-02-07T00:07:44;14.63;;;13.40;;
11008;SDS011;5557;51.670;7.788;2023-02-07T00:10:11;17.07;;;15.50;;
11008;SDS011;5557;51.670;7.788;2023-02-07T00:12:38;15.00;;;13.13;;
11008;SDS011;5557;51.670;7.788;2023-02-07T00:15:05;16.50;;;14.80;;
11008;SDS011;5557;51.670;7.788;2023-02-07T00:17:33;17.13;;;15.20;;
11008;SDS011;5557;51.670;7.788;2023-02-07T00:19:59;13.00;;;11.90;;
11008;SDS011;5557;51.670;7.788;2023-02-07T00:22:27;15.03;;;12.33;;
11008;SDS011;5557;51.670;7.788;2023-02-07T00:24:54;13.30;;;12.00;;
11008;SDS011;5557;51.670;7.788;2023-02-07T00:27:20;13.20;;;12.00;;
11008;SDS011;5557;51.670;7.788;2023-02-07T00:29:48;13.00;;;11.77;;
11008;SDS011;5557;51.670;7.788;2023-02-07T00:32:15;12.90;;;11.70;;
11008;SDS011;5557;51.670;7.788;2023-02-07T00:34:46;14.33;;;12.83;;
11008;SDS011;5557;51.670;7.788;2023-02-07T00:37:13;14.37;;;11.80;;
11008;SDS011;5557;51.670;7.788;2023-02-07T00:39:40;13.83;;;12.57;;
11008;SDS011;5557;51.670;7.788;2023-02-07T00:42:07;14.67;;;13.37;;
11008;SDS011;5557;51.670;7.788;2023-02-07T00:44:34;14.40;;;13.07;;
11008;SDS011;5557;51.670;7.788;2023-02-07T00:47:01;13.53;;;12.40;;
11008;SDS011;5557;51.670;7.788;2023-02-07T00:49:28;16.13;;;14.57;;
11008;SDS011;5557;51.670;7.788;2023-02-07T00:51:55;14.73;;;13.33;;
11008;SDS011;5557;51.670;7.788;2023-02-07T00:54:22;15.00;;;13.53;;
11008;SDS011;5557;51.670;7.788;2023-02-07T00:56:49;15.50;;;13.90;;
11008;SDS011;5557;51.670;7.788;2023-02-07T00:59:15;17.33;;;13.63;;
11008;SDS011;5557;51.670;7.788;2023-02-07T01:01:42;16.10;;;13.30;;
11008;SDS011;5557;51.670;7.788;2023-02-07T01:04:09;14.77;;;13.47;;
11008;SDS011;5557;51.670;7.788;2023-02-07T01:06:36;15.20;;;13.60;;
11008;SDS011;5557;51.670;7.788;2023-02-07T01:09:04;15.30;;;13.90;;
11008;SDS011;5557;51.670;7.788;2023-02-07T01:11:32;17.27;;;15.43;;
11008;SDS011;5557;51.670;7.788;2023-02-07T01:13:59;18.17;;;14.20;;
11008;SDS011;5557;51.670;7.788;2023-02-07T01:16:28;17.00;;;15.30;;
11008;SDS011;5557;51.670;7.788;2023-02-07T01:18:59;16.90;;;15.07;;
11008;SDS011;5557;51.670;7.788;2023-02-07T01:21:27;16.50;;;14.57;;
11008;SDS011;5557;51.670;7.788;2023-02-07T01:23:54;16.10;;;14.60;;
11008;SDS011;5557;51.670;7.788;2023-02-07T01:26:22;17.30;;;15.57;;
11008;SDS011;5557;51.670;7.788;2023-02-07T01:28:50;18.90;;;16.90;;
11008;SDS011;5557;51.670;7.788;2023-02-07T01:31:20;17.43;;;15.70;;
11008;SDS011;5557;51.670;7.788;2023-02-07T01:33:52;18.17;;;16.30;;
11008;SDS011;5557;51.670;7.788;2023-02-07T01:36:23;19.03;;;16.50;;
11008;SDS011;5557;51.670;7.788;2023-02-07T01:38:51;17.03;;;15.43;;
11008;SDS011;5557;51.670;7.788;2023-02-07T01:41:19;19.73;;;17.73;;
11008;SDS011;5557;51.670;7.788;2023-02-07T01:43:51;18.17;;;16.00;;
11008;SDS011;5557;51.670;7.788;2023-02-07T01:46:19;18.40;;;16.67;;
11008;SDS011;5557;51.670;7.788;2023-02-07T01:48:46;21.33;;;18.20;;
11008;SDS011;5557;51.670;7.788;2023-02-07T01:51:14;20.13;;;18.13;;
11008;SDS011;5557;51.670;7.788;2023-02-07T01:53:41;21.93;;;18.83;;
11008;SDS011;5557;51.670;7.788;2023-02-07T01:56:09;27.80;;;18.30;;
11008;SDS011;5557;51.670;7.788;2023-02-07T01:58:51;22.50;;;17.63;;
11008;SDS011;5557;51.670;7.788;2023-02-07T02:01:21;23.83;;;18.77;;
11008;SDS011;5557;51.670;7.788;2023-02-07T02:03:51;22.33;;;19.53;;
11008;SDS011;5557;51.670;7.788;2023-02-07T02:06:20;23.50;;;20.70;;
11008;SDS011;5557;51.670;7.788;2023-02-07T02:08:54;22.83;;;20.40;;
11008;SDS011;5557;51.670;7.788;2023-02-07T02:11:44;24.00;;;21.40;;
11008;SDS011;5557;51.670;7.788;2023-02-07T02:24:49;21.63;;;18.20;;
11008;SDS011;5557;51.670;7.788;2023-02-07T02:32:13;23.90;;;19.93;;
11008;SDS011;5557;51.670;7.788;2023-02-07T02:37:45;23.90;;;20.97;;
11008;SDS011;5557;51.670;7.788;2023-02-07T02:40:30;23.50;;;20.40;;
11008;SDS011;5557;51.670;7.788;2023-02-07T02:43:36;27.80;;;23.63;;
11008;SDS011;5557;51.670;7.788;2023-02-07T02:46:25;28.60;;;24.50;;
11008;SDS011;5557;51.670;7.788;2023-02-07T02:48:55;28.77;;;25.73;;
11008;SDS011;5557;51.670;7.788;2023-02-07T02:51:26;24.67;;;22.03;;
11008;SDS011;5557;51.670;7.788;2023-02-07T02:53:57;27.03;;;22.10;;
11008;SDS011;5557;51.670;7.788;2023-02-07T02:56:38;27.77;;;22.90;;
11008;SDS011;5557;51.670;7.788;2023-02-07T02:59:25;27.17;;;21.90;;
11008;SDS011;5557;51.670;7.788;2023-02-07T03:05:35;29.47;;;24.90;;
11008;SDS011;5557;51.670;7.788;2023-02-07T03:09:05;30.53;;;27.20;;
11008;SDS011;5557;51.670;7.788;2023-02-07T03:11:36;30.00;;;26.90;;
11008;SDS011;5557;51.670;7.788;2023-02-07T03:14:09;32.37;;;28.90;;
11008;SDS011;5557;51.670;7.788;2023-02-07T03:16:48;27.60;;;24.50;;
11008;SDS011;5557;51.670;7.788;2023-02-07T03:19:26;26.33;;;23.63;;
11008;SDS011;5557;51.670;7.788;2023-02-07T03:21:59;28.50;;;22.80;;
11008;SDS011;5557;51.670;7.788;2023-02-07T03:24:36;27.00;;;22.80;;
11008;SDS011;5557;51.670;7.788;2023-02-07T03:27:08;28.83;;;23.70;;
11008;SDS011;5557;51.670;7.788;2023-02-07T03:29:38;27.10;;;23.20;;
11008;SDS011;5557;51.670;7.788;2023-02-07T03:32:10;26.23;;;21.93;;
11008;SDS011;5557;51.670;7.788;2023-02-07T03:37:10;28.17;;;23.10;;
11008;SDS011;5557;51.670;7.788;2023-02-07T03:39:41;27.97;;;24.77;;
11008;SDS011;5557;51.670;7.788;2023-02-07T03:42:12;27.17;;;23.90;;
11008;SDS011;5557;51.670;7.788;2023-02-07T03:44:47;25.83;;;22.40;;
11008;SDS011;5557;51.670;7.788;2023-02-07T03:47:16;32.53;;;23.93;;
11008;SDS011;5557;51.670;7.788;2023-02-07T03:49:44;26.40;;;22.80;;
11008;SDS011;5557;51.670;7.788;2023-02-07T03:52:11;26.57;;;23.70;;
11008;SDS011;5557;51.670;7.788;2023-02-07T03:54:38;33.97;;;24.20;;
11008;SDS011;5557;51.670;7.788;2023-02-07T03:57:05;34.03;;;25.20;;
11008;SDS011;5557;51.670;7.788;2023-02-07T03:59:32;32.10;;;26.57;;
11008;SDS011;5557;51.670;7.788;2023-02-07T04:01:59;36.67;;;28.37;;
11008;SDS011;5557;51.670;7.788;2023-02-07T04:04:27;27.07;;;24.13;;
11008;SDS011;5557;51.670;7.788;2023-02-07T04:06:54;26.20;;;22.93;;
11008;SDS011;5557;51.670;7.788;2023-02-07T04:09:21;39.70;;;31.50;;
11008;SDS011;5557;51.670;7.788;2023-02-07T04:11:49;35.73;;;31.93;;
11008;SDS011;5557;51.670;7.788;2023-02-07T04:14:17;41.43;;;36.80;;
11008;SDS011;5557;51.670;7.788;2023-02-07T04:16:48;44.93;;;36.67;;
11008;SDS011;5557;51.670;7.788;2023-02-07T04:19:15;47.27;;;39.30;;
11008;SDS011;5557;51.670;7.788;2023-02-07T04:21:42;40.07;;;32.03;;
11008;SDS011;5557;51.670;7.788;2023-02-07T04:24:09;32.20;;;26.80;;
11008;SDS011;5557;51.670;7.788;2023-02-07T04:26:36;36.40;;;27.50;;
11008;SDS011;5557;51.670;7.788;2023-02-07T04:29:04;31.00;;;27.60;;
11008;SDS011;5557;51.670;7.788;2023-02-07T04:34:01;31.30;;;26.80;;
11008;SDS011;5557;51.670;7.788;2023-02-07T04:36:27;32.40;;;26.70;;
11008;SDS011;5557;51.670;7.788;2023-02-07T04:38:57;33.30;;;27.23;;
11008;SDS011;5557;51.670;7.788;2023-02-07T04:41:24;36.60;;;30.23;;
11008;SDS011;5557;51.670;7.788;2023-02-07T04:43:51;43.43;;;28.87;;
11008;SDS011;5557;51.670;7.788;2023-02-07T04:46:19;42.70;;;29.60;;
11008;SDS011;5557;51.670;7.788;2023-02-07T04:48:46;40.80;;;30.70;;
11008;SDS011;5557;51.670;7.788;2023-02-07T04:51:16;39.83;;;31.33;;
11008;SDS011;5557;51.670;7.788;2023-02-07T04:53:43;44.10;;;31.63;;
11008;SDS011;5557;51.670;7.788;2023-02-07T04:56:09;44.60;;;33.33;;
11008;SDS011;5557;51.670;7.788;2023-02-07T04:58:36;48.03;;;34.00;;
11008;SDS011;5557;51.670;7.788;2023-02-07T05:01:03;40.37;;;30.90;;
11008;SDS011;5557;51.670;7.788;2023-02-07T05:03:30;41.70;;;32.20;;
11008;SDS011;5557;51.670;7.788;2023-02-07T05:05:57;35.60;;;28.73;;
11008;SDS011;5557;51.670;7.788;2023-02-07T05:08:24;38.50;;;30.53;;
11008;SDS011;5557;51.670;7.788;2023-02-07T05:10:52;41.53;;;29.10;;
11008;SDS011;5557;51.670;7.788;2023-02-07T05:13:20;39.50;;;29.37;;
11008;SDS011;5557;51.670;7.788;2023-02-07T05:15:48;35.43;;;28.37;;
11008;SDS011;5557;51.670;7.788;2023-02-07T05:18:16;33.93;;;28.23;;
11008;SDS011;5557;51.670;7.788;2023-02-07T05:20:43;33.80;;;28.53;;
11008;SDS011;5557;51.670;7.788;2023-02-07T05:23:10;39.73;;;28.50;;
11008;SDS011;5557;51.670;7.788;2023-02-07T05:25:37;41.87;;;28.50;;
11008;SDS011;5557;51.670;7.788;2023-02-07T05:28:07;34.87;;;27.60;;
11008;SDS011;5557;51.670;7.788;2023-02-07T05:30:35;34.50;;;28.23;;
11008;SDS011;5557;51.670;7.788;2023-02-07T05:33:06;40.57;;;28.93;;
11008;SDS011;5557;51.670;7.788;2023-02-07T05:35:34;44.43;;;37.30;;
11008;SDS011;5557;51.670;7.788;2023-02-07T05:38:04;74.37;;;57.73;;
11008;SDS011;5557;51.670;7.788;2023-02-07T05:40:33;61.77;;;49.57;;
11008;SDS011;5557;51.670;7.788;2023-02-07T05:43:01;44.27;;;38.00;;
11008;SDS011;5557;51.670;7.788;2023-02-07T05:45:28;47.87;;;39.67;;
11008;SDS011;5557;51.670;7.788;2023-02-07T05:47:55;51.47;;;39.67;;
11008;SDS011;5557;51.670;7.788;2023-02-07T05:50:22;43.80;;;34.43;;
11008;SDS011;5557;51.670;7.788;2023-02-07T05:52:50;41.03;;;32.70;;
11008;SDS011;5557;51.670;7.788;2023-02-07T05:55:17;39.20;;;32.30;;
11008;SDS011;5557;51.670;7.788;2023-02-07T05:57:44;40.43;;;29.90;;
11008;SDS011;5557;51.670;7.788;2023-02-07T06:00:12;39.47;;;30.17;;
11008;SDS011;5557;51.670;7.788;2023-02-07T06:02:42;36.33;;;30.50;;
11008;SDS011;5557;51.670;7.788;2023-02-07T06:05:13;38.63;;;29.73;;
11008;SDS011;5557;51.670;7.788;2023-02-07T06:07:42;43.70;;;33.07;;
11008;SDS011;5557;51.670;7.788;2023-02-07T06:10:12;46.07;;;34.10;;
11008;SDS011;5557;51.670;7.788;2023-02-07T06:12:40;46.87;;;35.13;;
11008;SDS011;5557;51.670;7.788;2023-02-07T06:15:07;53.10;;;41.50;;
11008;SDS011;5557;51.670;7.788;2023-02-07T06:17:34;47.73;;;39.13;;
11008;SDS011;5557;51.670;7.788;2023-02-07T06:20:02;47.97;;;37.50;;
11008;SDS011;5557;51.670;7.788;2023-02-07T06:22:29;46.87;;;36.80;;
11008;SDS011;5557;51.670;7.788;2023-02-07T06:24:56;47.53;;;38.40;;
11008;SDS011;5557;51.670;7.788;2023-02-07T06:27:22;49.80;;;36.60;;
11008;SDS011;5557;51.670;7.788;2023-02-07T06:29:49;42.80;;;35.70;;
11008;SDS011;5557;51.670;7.788;2023-02-07T06:32:16;41.00;;;33.53;;
11008;SDS011;5557;51.670;7.788;2023-02-07T06:34:44;43.63;;;34.90;;
11008;SDS011;5557;51.670;7.788;2023-02-07T06:37:11;41.53;;;34.17;;
11008;SDS011;5557;51.670;7.788;2023-02-07T06:39:38;45.40;;;35.30;;
11008;SDS011;5557;51.670;7.788;2023-02-07T06:42:05;42.20;;;32.80;;
11008;SDS011;5557;51.670;7.788;2023-02-07T06:44:32;41.30;;;33.60;;
11008;SDS011;5557;51.670;7.788;2023-02-07T06:46:59;43.33;;;33.90;;
11008;SDS011;5557;51.670;7.788;2023-02-07T06:49:26;46.37;;;36.87;;
11008;SDS011;5557;51.670;7.788;2023-02-07T06:51:52;47.33;;;38.40;;
11008;SDS011;5557;51.670;7.788;2023-02-07T06:54:19;51.17;;;37.67;;
11008;SDS011;5557;51.670;7.788;2023-02-07T06:56:46;44.60;;;34.60;;
11008;SDS011;5557;51.670;7.788;2023-02-07T06:59:13;38.73;;;31.80;;
11008;SDS011;5557;51.670;7.788;2023-02-07T07:01:40;41.13;;;32.10;;
11008;SDS011;5557;51.670;7.788;2023-02-07T07:04:07;38.83;;;29.90;;
11008;SDS011;5557;51.670;7.788;2023-02-07T07:06:35;35.90;;;29.33;;
11008;SDS011;5557;51.670;7.788;2023-02-07T07:09:02;38.80;;;31.93;;
11008;SDS011;5557;51.670;7.788;2023-02-07T07:11:30;42.00;;;31.70;;
11008;SDS011;5557;51.670;7.788;2023-02-07T07:13:57;50.67;;;37.30;;
11008;SDS011;5557;51.670;7.788;2023-02-07T07:16:25;51.03;;;37.53;;
11008;SDS011;5557;51.670;7.788;2023-02-07T07:18:52;48.53;;;38.97;;
11008;SDS011;5557;51.670;7.788;2023-02-07T07:21:19;60.50;;;44.30;;
11008;SDS011;5557;51.670;7.788;2023-02-07T07:23:46;60.13;;;47.60;;
11008;SDS011;5557;51.670;7.788;2023-02-07T07:26:13;67.10;;;51.20;;
11008;SDS011;5557;51.670;7.788;2023-02-07T07:28:40;57.70;;;46.30;;
11008;SDS011;5557;51.670;7.788;2023-02-07T07:31:07;54.90;;;43.00;;
11008;SDS011;5557;51.670;7.788;2023-02-07T07:33:35;46.47;;;38.63;;
11008;SDS011;5557;51.670;7.788;2023-02-07T07:36:02;43.87;;;33.43;;
11008;SDS011;5557;51.670;7.788;2023-02-07T07:38:30;38.93;;;29.80;;
11008;SDS011;5557;51.670;7.788;2023-02-07T07:40:58;30.77;;;27.43;;
11008;SDS011;5557;51.670;7.788;2023-02-07T07:43:26;26.87;;;24.00;;
11008;SDS011;5557;51.670;7.788;2023-02-07T07:45:57;30.50;;;23.00;;
11008;SDS011;5557;51.670;7.788;2023-02-07T07:48:25;25.50;;;20.70;;
11008;SDS011;5557;51.670;7.788;2023-02-07T07:50:53;20.70;;;17.77;;
11008;SDS011;5557;51.670;7.788;2023-02-07T07:53:20;20.20;;;16.73;;
11008;SDS011;5557;51.670;7.788;2023-02-07T07:55:51;37.10;;;25.90;;
11008;SDS011;5557;51.670;7.788;2023-02-07T07:58:20;16.70;;;14.97;;
11008;SDS011;5557;51.670;7.788;2023-02-07T08:00:48;16.97;;;15.20;;
11008;SDS011;5557;51.670;7.788;2023-02-07T08:03:16;19.73;;;16.43;;
11008;SDS011;5557;51.670;7.788;2023-02-07T08:05:44;19.03;;;16.07;;
11008;SDS011;5557;51.670;7.788;2023-02-07T08:08:12;17.20;;;15.13;;
11008;SDS011;5557;51.670;7.788;2023-02-07T08:10:40;23.00;;;15.50;;
11008;SDS011;5557;51.670;7.788;2023-02-07T08:13:08;15.80;;;14.20;;
11008;SDS011;5557;51.670;7.788;2023-02-07T08:15:35;22.83;;;16.57;;
11008;SDS011;5557;51.670;7.788;2023-02-07T08:18:02;14.13;;;12.73;;
11008;SDS011;5557;51.670;7.788;2023-02-07T08:20:29;15.30;;;11.87;;
11008;SDS011;5557;51.670;7.788;2023-02-07T08:22:56;13.27;;;11.37;;
11008;SDS011;5557;51.670;7.788;2023-02-07T08:25:24;12.40;;;11.23;;
11008;SDS011;5557;51.670;7.788;2023-02-07T08:27:52;13.53;;;12.10;;
11008;SDS011;5557;51.670;7.788;2023-02-07T08:30:20;14.00;;;11.47;;
11008;SDS011;5557;51.670;7.788;2023-02-07T08:32:48;10.90;;;9.80;;
11008;SDS011;5557;51.670;7.788;2023-02-07T08:35:26;12.17;;;10.80;;
11008;SDS011;5557;51.670;7.788;2023-02-07T08:37:53;12.37;;;11.03;;
11008;SDS011;5557;51.670;7.788;2023-02-07T08:40:24;15.33;;;11.07;;
11008;SDS011;5557;51.670;7.788;2023-02-07T08:42:52;13.40;;;11.43;;
11008;SDS011;5557;51.670;7.788;2023-02-07T08:45:21;16.13;;;10.50;;
11008;SDS011;5557;51.670;7.788;2023-02-07T08:47:48;10.70;;;9.80;;
11008;SDS011;5557;51.670;7.788;2023-02-07T08:50:15;13.67;;;11.30;;
11008;SDS011;5557;51.670;7.788;2023-02-07T08:52:42;10.43;;;9.50;;
11008;SDS011;5557;51.670;7.788;2023-02-07T08:55:10;11.00;;;9.80;;
11008;SDS011;5557;51.670;7.788;2023-02-07T08:57:37;9.73;;;8.83;;
11008;SDS011;5557;51.670;7.788;2023-02-07T09:00:04;9.70;;;8.90;;
11008;SDS011;5557;51.670;7.788;2023-02-07T09:02:33;11.03;;;10.03;;
11008;SDS011;5557;51.670;7.788;2023-02-07T09:05:00;8.97;;;8.23;;
11008;SDS011;5557;51.670;7.788;2023-02-07T09:07:27;11.57;;;9.73;;
11008;SDS011;5557;51.670;7.788;2023-02-07T09:09:54;12.53;;;9.13;;
11008;SDS011;5557;51.670;7.788;2023-02-07T09:12:21;10.20;;;9.20;;
11008;SDS011;5557;51.670;7.788;2023-02-07T09:14:48;8.87;;;8.17;;
11008;SDS011;5557;51.670;7.788;2023-02-07T09:17:15;14.47;;;9.57;;
11008;SDS011;5557;51.670;7.788;2023-02-07T09:19:42;9.73;;;8.80;;
11008;SDS011;5557;51.670;7.788;2023-02-07T09:22:09;10.73;;;8.20;;
11008;SDS011;5557;51.670;7.788;2023-02-07T09:24:36;9.83;;;8.93;;
11008;SDS011;5557;51.670;7.788;2023-02-07T09:27:03;10.57;;;9.47;;
11008;SDS011;5557;51.670;7.788;2023-02-07T09:29:30;9.43;;;8.53;;
11008;SDS011;5557;51.670;7.788;2023-02-07T09:31:57;10.33;;;9.40;;
11008;SDS011;5557;51.670;7.788;2023-02-07T09:34:25;13.57;;;10.30;;
11008;SDS011;5557;51.670;7.788;2023-02-07T09:36:53;9.53;;;8.83;;
11008;SDS011;5557;51.670;7.788;2023-02-07T09:39:20;10.27;;;9.30;;
11008;SDS011;5557;51.670;7.788;2023-02-07T09:41:54;9.97;;;9.00;;
11008;SDS011;5557;51.670;7.788;2023-02-07T09:44:56;9.17;;;8.37;;
11008;SDS011;5557;51.670;7.788;2023-02-07T09:47:35;9.53;;;8.73;;
11008;SDS011;5557;51.670;7.788;2023-02-07T09:50:14;11.00;;;9.93;;
11008;SDS011;5557;51.670;7.788;2023-02-07T09:52:51;9.83;;;8.83;;
11008;SDS011;5557;51.670;7.788;2023-02-07T09:55:26;11.53;;;8.20;;
11008;SDS011;5557;51.670;7.788;2023-02-07T09:58:08;8.30;;;7.70;;
11008;SDS011;5557;51.670;7.788;2023-02-07T10:00:39;8.20;;;7.50;;
11008;SDS011;5557;51.670;7.788;2023-02-07T10:03:15;7.40;;;6.80;;
11008;SDS011;5557;51.670;7.788;2023-02-07T10:05:59;7.70;;;7.00;;
11008;SDS011;5557;51.670;7.788;2023-02-07T10:08:43;6.70;;;6.20;;
11008;SDS011;5557;51.670;7.788;2023-02-07T10:14:06;10.33;;;7.30;;
11008;SDS011;5557;51.670;7.788;2023-02-07T10:17:36;8.93;;;6.90;;
11008;SDS011;5557;51.670;7.788;2023-02-07T10:20:17;6.67;;;6.30;;
11008;SDS011;5557;51.670;7.788;2023-02-07T10:24:22;8.13;;;7.40;;
11008;SDS011;5557;51.670;7.788;2023-02-07T10:26:10;6.33;;;5.93;;
11008;SDS011;5557;51.670;7.788;2023-02-07T10:32:30;6.40;;;6.10;;
11008;SDS011;5557;51.670;7.788;2023-02-07T10:35:20;5.53;;;5.23;;
11008;SDS011;5557;51.670;7.788;2023-02-07T10:37:52;5.80;;;5.40;;
11008;SDS011;5557;51.670;7.788;2023-02-07T10:40:29;5.87;;;5.40;;
11008;SDS011;5557;51.670;7.788;2023-02-07T10:43:10;6.60;;;6.00;;
11008;SDS011;5557;51.670;7.788;2023-02-07T10:45:46;5.10;;;4.80;;
11008;SDS011;5557;51.670;7.788;2023-02-07T10:48:25;6.10;;;5.60;;
11008;SDS011;5557;51.670;7.788;2023-02-07T10:50:54;12.73;;;6.00;;
11008;SDS011;5557;51.670;7.788;2023-02-07T10:56:30;4.93;;;4.57;;
11008;SDS011;5557;51.670;7.788;2023-02-07T10:58:59;5.10;;;4.80;;
11008;SDS011;5557;51.670;7.788;2023-02-07T11:01:26;4.80;;;4.60;;
11008;SDS011;5557;51.670;7.788;2023-02-07T11:03:56;4.60;;;4.40;;
11008;SDS011;5557;51.670;7.788;2023-02-07T11:09:09;5.90;;;5.50;;
11008;SDS011;5557;51.670;7.788;2023-02-07T11:11:38;6.17;;;5.70;;
11008;SDS011;5557;51.670;7.788;2023-02-07T11:14:06;6.40;;;5.90;;
11008;SDS011;5557;51.670;7.788;2023-02-07T11:16:42;6.67;;;6.17;;
11008;SDS011;5557;51.670;7.788;2023-02-07T11:19:13;8.67;;;7.97;;
11008;SDS011;5557;51.670;7.788;2023-02-07T11:21:44;5.80;;;5.33;;
11008;SDS011;5557;51.670;7.788;2023-02-07T11:24:17;6.57;;;6.07;;
11008;SDS011;5557;51.670;7.788;2023-02-07T11:29:54;7.13;;;6.53;;
11008;SDS011;5557;51.670;7.788;2023-02-07T11:32:29;6.20;;;5.70;;
11008;SDS011;5557;51.670;7.788;2023-02-07T11:35:05;5.93;;;5.63;;
11008;SDS011;5557;51.670;7.788;2023-02-07T11:45:34;6.07;;;5.77;;
11008;SDS011;5557;51.670;7.788;2023-02-07T11:48:04;6.27;;;5.67;;
11008;SDS011;5557;51.670;7.788;2023-02-07T11:50:35;5.97;;;5.67;;
11008;SDS011;5557;51.670;7.788;2023-02-07T11:53:05;5.83;;;5.50;;
11008;SDS011;5557;51.670;7.788;2023-02-07T11:55:42;5.63;;;5.37;;
11008;SDS011;5557;51.670;7.788;2023-02-07T11:58:12;5.13;;;4.93;;
11008;SDS011;5557;51.670;7.788;2023-02-07T12:00:45;6.57;;;6.10;;
11008;SDS011;5557;51.670;7.788;2023-02-07T12:03:23;5.90;;;5.70;;
11008;SDS011;5557;51.670;7.788;2023-02-07T12:05:57;5.53;;;5.23;;
11008;SDS011;5557;51.670;7.788;2023-02-07T12:08:28;6.00;;;5.70;;
11008;SDS011;5557;51.670;7.788;2023-02-07T12:11:03;6.30;;;5.97;;
11008;SDS011;5557;51.670;7.788;2023-02-07T12:13:38;5.63;;;5.33;;
11008;SDS011;5557;51.670;7.788;2023-02-07T12:16:13;6.17;;;5.83;;
11008;SDS011;5557;51.670;7.788;2023-02-07T12:19:06;5.80;;;5.50;;
11008;SDS011;5557;51.670;7.788;2023-02-07T12:27:28;4.80;;;4.50;;
11008;SDS011;5557;51.670;7.788;2023-02-07T12:33:18;5.40;;;4.83;;
11008;SDS011;5557;51.670;7.788;2023-02-07T12:36:11;4.93;;;4.73;;
11008;SDS011;5557;51.670;7.788;2023-02-07T12:38:55;4.83;;;4.53;;
11008;SDS011;5557;51.670;7.788;2023-02-07T12:44:57;6.20;;;5.60;;
11008;SDS011;5557;51.670;7.788;2023-02-07T12:47:36;4.37;;;4.27;;
11008;SDS011;5557;51.670;7.788;2023-02-07T12:53:18;4.80;;;4.70;;
11008;SDS011;5557;51.670;7.788;2023-02-07T12:59:10;5.07;;;4.63;;
11008;SDS011;5557;51.670;7.788;2023-02-07T13:02:22;4.60;;;4.40;;
11008;SDS011;5557;51.670;7.788;2023-02-07T13:05:43;5.30;;;4.90;;
11008;SDS011;5557;51.670;7.788;2023-02-07T13:11:40;4.83;;;4.57;;
11008;SDS011;5557;51.670;7.788;2023-02-07T13:15:04;5.50;;;5.20;;
11008;SDS011;5557;51.670;7.788;2023-02-07T13:17:34;5.70;;;5.20;;
11008;SDS011;5557;51.670;7.788;2023-02-07T13:22:53;10.77;;;5.23;;
11008;SDS011;5557;51.670;7.788;2023-02-07T13:25:26;5.40;;;5.10;;
11008;SDS011;5557;51.670;7.788;2023-02-07T13:28:02;4.73;;;4.53;;
11008;SDS011;5557;51.670;7.788;2023-02-07T13:30:52;5.40;;;5.10;;
11008;SDS011;5557;51.670;7.788;2023-02-07T13:33:43;4.93;;;4.73;;
11008;SDS011;5557;51.670;7.788;2023-02-07T13:36:19;6.30;;;5.70;;
11008;SDS011;5557;51.670;7.788;2023-02-07T13:42:32;7.20;;;6.60;;
11008;SDS011;5557;51.670;7.788;2023-02-07T13:48:33;7.30;;;6.70;;
11008;SDS011;5557;51.670;7.788;2023-02-07T13:51:25;7.67;;;7.17;;
11008;SDS011;5557;51.670;7.788;2023-02-07T13:57:02;6.10;;;5.77;;
11008;SDS011;5557;51.670;7.788;2023-02-07T14:02:51;6.47;;;6.07;;
11008;SDS011;5557;51.670;7.788;2023-02-07T14:05:29;6.27;;;5.57;;
11008;SDS011;5557;51.670;7.788;2023-02-07T14:08:04;6.13;;;5.83;;
11008;SDS011;5557;51.670;7.788;2023-02-07T14:10:50;5.47;;;5.17;;
11008;SDS011;5557;51.670;7.788;2023-02-07T14:16:08;5.77;;;5.50;;
11008;SDS011;5557;51.670;7.788;2023-02-07T14:18:39;5.33;;;4.93;;
11008;SDS011;5557;51.670;7.788;2023-02-07T14:24:03;5.53;;;5.10;;
11008;SDS011;5557;51.670;7.788;2023-02-07T14:26:48;6.57;;;6.07;;
11008;SDS011;5557;51.670;7.788;2023-02-07T14:32:25;4.93;;;4.73;;
11008;SDS011;5557;51.670;7.788;2023-02-07T14:34:58;4.80;;;4.50;;
11008;SDS011;5557;51.670;7.788;2023-02-07T14:37:51;6.03;;;5.43;;
11008;SDS011;5557;51.670;7.788;2023-02-07T14:40:26;6.23;;;5.63;;
11008;SDS011;5557;51.670;7.788;2023-02-07T14:43:52;6.63;;;5.87;;
11008;SDS011;5557;51.670;7.788;2023-02-07T14:46:37;5.93;;;5.43;;
11008;SDS011;5557;51.670;7.788;2023-02-07T14:49:23;6.67;;;6.07;;
11008;SDS011;5557;51.670;7.788;2023-02-07T14:52:03;6.70;;;6.20;;
11008;SDS011;5557;51.670;7.788;2023-02-07T14:54:44;6.77;;;6.27;;
11008;SDS011;5557;51.670;7.788;2023-02-07T14:57:32;9.10;;;8.27;;
11008;SDS011;5557;51.670;7.788;2023-02-07T15:00:29;8.13;;;7.33;;
11008;SDS011;5557;51.670;7.788;2023-02-07T15:02:58;8.27;;;7.47;;
11008;SDS011;5557;51.670;7.788;2023-02-07T15:05:35;8.13;;;7.53;;
11008;SDS011;5557;51.670;7.788;2023-02-07T15:08:18;9.33;;;8.50;;
11008;SDS011;5557;51.670;7.788;2023-02-07T15:13:34;9.90;;;7.60;;
11008;SDS011;5557;51.670;7.788;2023-02-07T15:16:11;11.20;;;8.87;;
11008;SDS011;5557;51.670;7.788;2023-02-07T15:18:45;9.10;;;8.20;;
11008;SDS011;5557;51.670;7.788;2023-02-07T15:21:21;9.37;;;8.37;;
11008;SDS011;5557;51.670;7.788;2023-02-07T15:24:30;10.20;;;9.10;;
11008;SDS011;5557;51.670;7.788;2023-02-07T15:27:21;10.30;;;9.20;;
11008;SDS011;5557;51.670;7.788;2023-02-07T15:29:57;10.47;;;8.60;;
11008;SDS011;5557;51.670;7.788;2023-02-07T15:32:30;9.57;;;8.67;;
11008;SDS011;5557;51.670;7.788;2023-02-07T15:38:46;11.00;;;9.90;;
11008;SDS011;5557;51.670;7.788;2023-02-07T15:40:58;10.63;;;8.97;;
11008;SDS011;5557;51.670;7.788;2023-02-07T15:43:29;16.13;;;11.93;;
11008;SDS011;5557;51.670;7.788;2023-02-07T15:46:02;13.47;;;12.03;;
11008;SDS011;5557;51.670;7.788;2023-02-07T15:48:30;13.10;;;11.40;;
11008;SDS011;5557;51.670;7.788;2023-02-07T15:50:59;11.40;;;10.13;;
11008;SDS011;5557;51.670;7.788;2023-02-07T15:53:29;9.70;;;8.60;;
11008;SDS011;5557;51.670;7.788;2023-02-07T15:55:56;9.70;;;8.80;;
11008;SDS011;5557;51.670;7.788;2023-02-07T15:58:30;12.30;;;10.30;;
11008;SDS011;5557;51.670;7.788;2023-02-07T16:01:05;11.03;;;9.70;;
11008;SDS011;5557;51.670;7.788;2023-02-07T16:03:57;12.60;;;11.27;;
11008;SDS011;5557;51.670;7.788;2023-02-07T16:06:25;10.60;;;8.60;;
11008;SDS011;5557;51.670;7.788;2023-02-07T16:08:54;11.23;;;8.13;;
11008;SDS011;5557;51.670;7.788;2023-02-07T16:14:20;9.60;;;8.90;;
11008;SDS011;5557;51.670;7.788;2023-02-07T16:16:51;18.90;;;9.57;;
11008;SDS011;5557;51.670;7.788;2023-02-07T16:19:26;12.97;;;11.40;;
11008;SDS011;5557;51.670;7.788;2023-02-07T16:22:39;14.57;;;13.07;;
11008;SDS011;5557;51.670;7.788;2023-02-07T16:24:52;12.20;;;11.10;;
11008;SDS011;5557;51.670;7.788;2023-02-07T16:27:20;12.43;;;10.63;;
11008;SDS011;5557;51.670;7.788;2023-02-07T16:29:55;12.47;;;9.83;;
11008;SDS011;5557;51.670;7.788;2023-02-07T16:32:27;10.63;;;9.53;;
11008;SDS011;5557;51.670;7.788;2023-02-07T16:34:57;10.00;;;9.30;;
11008;SDS011;5557;51.670;7.788;2023-02-07T16:37:26;14.50;;;11.50;;
11008;SDS011;5557;51.670;7.788;2023-02-07T16:39:53;11.50;;;10.33;;
11008;SDS011;5557;51.670;7.788;2023-02-07T16:42:20;17.00;;;11.90;;
11008;SDS011;5557;51.670;7.788;2023-02-07T16:44:47;13.00;;;11.60;;
11008;SDS011;5557;51.670;7.788;2023-02-07T16:47:14;14.90;;;12.30;;
11008;SDS011;5557;51.670;7.788;2023-02-07T16:49:43;12.73;;;11.53;;
11008;SDS011;5557;51.670;7.788;2023-02-07T16:52:11;11.83;;;10.73;;
11008;SDS011;5557;51.670;7.788;2023-02-07T16:54:38;13.30;;;12.10;;
11008;SDS011;5557;51.670;7.788;2023-02-07T16:57:05;14.47;;;11.60;;
11008;SDS011;5557;51.670;7.788;2023-02-07T16:59:32;13.43;;;11.47;;